UAL1765 KLAX-PHNL
Flight info
| Callsign | UAL1765 |
|---|---|
| Flight time | 5h 20m |
| Altitude | 38000 |
| Route | SUMMR2 DINTY DUETS 3335N12855W DADIE R576 DUSAC/N0477F400 R576 DENNS MAGGI3 |
| Aircraft | B772/H-SDE2E3FGHIJ5LORVWXY/LB1D1 |
Departure
| Time | 2026-04-25 15:18 |
|---|---|
| Airport | Los Angeles International Airport (KLAX) |
Arrival
| Time | 2026-04-25 20:38 |
|---|---|
| Airport | Daniel K. Inouye International Airport (PHNL) |
| Time | Latitude | Longitude | Altitude | Speed | Heading |
|---|---|---|---|---|---|
| 2026-04-25 14:49 | 33.94023 | -118.40933 | 130 ft | 0 kts | 264° |
| 2026-04-25 15:06 | 33.94026 | -118.40907 | 120 ft | 4 kts | 264° |
| 2026-04-25 15:06 | 33.94029 | -118.40875 | 124 ft | 4 kts | 264° |
| 2026-04-25 15:06 | 33.94031 | -118.40849 | 124 ft | 4 kts | 247° |
| 2026-04-25 15:06 | 33.94041 | -118.40833 | 124 ft | 4 kts | 196° |
| 2026-04-25 15:07 | 33.94066 | -118.40830 | 128 ft | 4 kts | 175° |
| 2026-04-25 15:07 | 33.94091 | -118.40833 | 127 ft | 4 kts | 174° |
| 2026-04-25 15:07 | 33.94118 | -118.40836 | 126 ft | 4 kts | 175° |
| 2026-04-25 15:07 | 33.94134 | -118.40837 | 124 ft | 0 kts | 173° |
| 2026-04-25 15:10 | 33.94133 | -118.40837 | 130 ft | 1 kts | 173° |
| 2026-04-25 15:11 | 33.94059 | -118.40826 | 127 ft | 15 kts | 173° |
| 2026-04-25 15:11 | 33.93955 | -118.40810 | 127 ft | 15 kts | 172° |
| 2026-04-25 15:11 | 33.93862 | -118.40754 | 125 ft | 15 kts | 148° |
| 2026-04-25 15:12 | 33.93828 | -118.40526 | 126 ft | 15 kts | 83° |
| 2026-04-25 15:12 | 33.93838 | -118.40401 | 126 ft | 15 kts | 83° |
| 2026-04-25 15:12 | 33.93853 | -118.40277 | 128 ft | 15 kts | 76° |
| 2026-04-25 15:12 | 33.93857 | -118.40234 | 128 ft | 15 kts | 90° |
| 2026-04-25 15:13 | 33.93875 | -118.40027 | 129 ft | 15 kts | 81° |
| 2026-04-25 15:13 | 33.93906 | -118.39775 | 129 ft | 17 kts | 82° |
| 2026-04-25 15:13 | 33.93919 | -118.39628 | 130 ft | 18 kts | 82° |
| 2026-04-25 15:14 | 33.93935 | -118.39481 | 127 ft | 18 kts | 83° |
| 2026-04-25 15:14 | 33.93951 | -118.39334 | 128 ft | 18 kts | 83° |
| 2026-04-25 15:14 | 33.93966 | -118.39188 | 126 ft | 18 kts | 83° |
| 2026-04-25 15:14 | 33.93979 | -118.39047 | 130 ft | 16 kts | 86° |
| 2026-04-25 15:15 | 33.93991 | -118.38912 | 130 ft | 14 kts | 81° |
| 2026-04-25 15:15 | 33.94000 | -118.38792 | 126 ft | 17 kts | 84° |
| 2026-04-25 15:15 | 33.94023 | -118.38632 | 125 ft | 20 kts | 81° |
| 2026-04-25 15:15 | 33.94039 | -118.38472 | 126 ft | 17 kts | 85° |
| 2026-04-25 15:16 | 33.94045 | -118.38358 | 128 ft | 9 kts | 87° |
| 2026-04-25 15:16 | 33.94043 | -118.38338 | 130 ft | 0 kts | 107° |
| 2026-04-25 15:17 | 33.93941 | -118.38359 | 125 ft | 10 kts | 263° |
| 2026-04-25 15:17 | 33.93930 | -118.38523 | 129 ft | 44 kts | 264° |
| 2026-04-25 15:17 | 33.93850 | -118.39277 | 129 ft | 135 kts | 263° |
| 2026-04-25 15:18 | 33.93653 | -118.40670 | 389 ft | 190 kts | 259° |
| 2026-04-25 15:18 | 33.93161 | -118.44041 | 2434 ft | 214 kts | 258° |
| 2026-04-25 15:18 | 33.92901 | -118.45840 | 3488 ft | 221 kts | 258° |
| 2026-04-25 15:19 | 33.92636 | -118.47678 | 4635 ft | 219 kts | 259° |
| 2026-04-25 15:19 | 33.92466 | -118.48869 | 5503 ft | 218 kts | 260° |
| 2026-04-25 15:19 | 33.92202 | -118.51318 | 6317 ft | 238 kts | 270° |
| 2026-04-25 15:19 | 33.92259 | -118.53427 | 6407 ft | 259 kts | 271° |
| 2026-04-25 15:20 | 33.92249 | -118.55615 | 7121 ft | 263 kts | 268° |
| 2026-04-25 15:20 | 33.92145 | -118.57808 | 7972 ft | 262 kts | 265° |
| 2026-04-25 15:20 | 33.91993 | -118.59992 | 8800 ft | 262 kts | 264° |
| 2026-04-25 15:20 | 33.91821 | -118.62185 | 9609 ft | 264 kts | 264° |
| 2026-04-25 15:21 | 33.91722 | -118.64392 | 10310 ft | 268 kts | 268° |
| 2026-04-25 15:21 | 33.91714 | -118.66721 | 10579 ft | 290 kts | 269° |
| 2026-04-25 15:21 | 33.91722 | -118.69248 | 10744 ft | 314 kts | 269° |
| 2026-04-25 15:21 | 33.91728 | -118.71974 | 10951 ft | 337 kts | 268° |
| 2026-04-25 15:22 | 33.91727 | -118.74856 | 11520 ft | 348 kts | 268° |
| 2026-04-25 15:22 | 33.91720 | -118.77776 | 12010 ft | 352 kts | 268° |
| 2026-04-25 15:22 | 33.91708 | -118.80746 | 11998 ft | 356 kts | 268° |
| 2026-04-25 15:22 | 33.91695 | -118.83674 | 12005 ft | 354 kts | 268° |
| 2026-04-25 15:23 | 33.91756 | -118.86661 | 12460 ft | 360 kts | 270° |
| 2026-04-25 15:23 | 33.91865 | -118.89666 | 13432 ft | 360 kts | 270° |
| 2026-04-25 15:23 | 33.91971 | -118.92684 | 14309 ft | 361 kts | 269° |
| 2026-04-25 15:23 | 33.92066 | -118.95722 | 15034 ft | 365 kts | 269° |
| 2026-04-25 15:24 | 33.92156 | -118.98793 | 15720 ft | 369 kts | 270° |
| 2026-04-25 15:24 | 33.92546 | -119.01872 | 16190 ft | 381 kts | 284° |
| 2026-04-25 15:24 | 33.93716 | -119.04778 | 16864 ft | 392 kts | 297° |
| 2026-04-25 15:24 | 33.94215 | -119.05716 | 17125 ft | 392 kts | 298° |
| 2026-04-25 15:25 | 33.96699 | -119.10338 | 18268 ft | 399 kts | 297° |
| 2026-04-25 15:25 | 33.98100 | -119.13013 | 18794 ft | 403 kts | 297° |
| 2026-04-25 15:25 | 33.99585 | -119.15887 | 19376 ft | 406 kts | 297° |
| 2026-04-25 15:25 | 34.01192 | -119.18700 | 19837 ft | 414 kts | 306° |
| 2026-04-25 15:26 | 34.03421 | -119.20974 | 20226 ft | 425 kts | 320° |
| 2026-04-25 15:26 | 34.05895 | -119.22999 | 20603 ft | 433 kts | 320° |
| 2026-04-25 15:26 | 34.08380 | -119.25056 | 21184 ft | 435 kts | 320° |
| 2026-04-25 15:26 | 34.10867 | -119.27145 | 21778 ft | 437 kts | 319° |
| 2026-04-25 15:27 | 34.13365 | -119.29270 | 22329 ft | 440 kts | 319° |
| 2026-04-25 15:27 | 34.15868 | -119.31418 | 22846 ft | 444 kts | 319° |
| 2026-04-25 15:27 | 34.20934 | -119.35788 | 23827 ft | 451 kts | 319° |
| 2026-04-25 15:28 | 34.23493 | -119.37998 | 24284 ft | 453 kts | 319° |
| 2026-04-25 15:28 | 34.26068 | -119.40223 | 24767 ft | 455 kts | 319° |
| 2026-04-25 15:28 | 34.28650 | -119.42455 | 25200 ft | 458 kts | 319° |
| 2026-04-25 15:28 | 34.31248 | -119.44702 | 25609 ft | 460 kts | 319° |
| 2026-04-25 15:29 | 34.33859 | -119.46962 | 26018 ft | 463 kts | 319° |
| 2026-04-25 15:29 | 34.36464 | -119.49243 | 26392 ft | 459 kts | 317° |
| 2026-04-25 15:29 | 34.38675 | -119.52003 | 26540 ft | 456 kts | 299° |
| 2026-04-25 15:29 | 34.40034 | -119.55416 | 26888 ft | 449 kts | 284° |
| 2026-04-25 15:30 | 34.40677 | -119.59084 | 27338 ft | 444 kts | 272° |
| 2026-04-25 15:30 | 34.40635 | -119.62787 | 27672 ft | 440 kts | 263° |
| 2026-04-25 15:30 | 34.40350 | -119.66497 | 27872 ft | 445 kts | 262° |
| 2026-04-25 15:30 | 34.40035 | -119.70238 | 28173 ft | 447 kts | 262° |
| 2026-04-25 15:31 | 34.39722 | -119.73996 | 28545 ft | 448 kts | 263° |
| 2026-04-25 15:31 | 34.39422 | -119.77754 | 28883 ft | 450 kts | 263° |
| 2026-04-25 15:31 | 34.39139 | -119.81484 | 29173 ft | 451 kts | 263° |
| 2026-04-25 15:31 | 34.38860 | -119.85278 | 29433 ft | 453 kts | 263° |
| 2026-04-25 15:32 | 34.38583 | -119.89134 | 29690 ft | 455 kts | 263° |
| 2026-04-25 15:32 | 34.38311 | -119.92948 | 29998 ft | 455 kts | 263° |
| 2026-04-25 15:32 | 34.38042 | -119.96712 | 30325 ft | 454 kts | 263° |
| 2026-04-25 15:33 | 34.37493 | -120.04324 | 31038 ft | 449 kts | 263° |
| 2026-04-25 15:33 | 34.37223 | -120.08031 | 31365 ft | 447 kts | 263° |
| 2026-04-25 15:33 | 34.36949 | -120.11775 | 31676 ft | 446 kts | 263° |
| 2026-04-25 15:33 | 34.36674 | -120.15514 | 32018 ft | 444 kts | 263° |
| 2026-04-25 15:34 | 34.36399 | -120.19230 | 32361 ft | 443 kts | 263° |
| 2026-04-25 15:34 | 34.36125 | -120.22930 | 32676 ft | 441 kts | 263° |
| 2026-04-25 15:34 | 34.35850 | -120.26617 | 33001 ft | 440 kts | 263° |
| 2026-04-25 15:34 | 34.35757 | -120.27865 | 33105 ft | 439 kts | 263° |
| 2026-04-25 15:35 | 34.35025 | -120.37617 | 33944 ft | 435 kts | 262° |
| 2026-04-25 15:35 | 34.34750 | -120.41255 | 34197 ft | 434 kts | 262° |
| 2026-04-25 15:35 | 34.34461 | -120.44889 | 34445 ft | 433 kts | 260° |
| 2026-04-25 15:36 | 34.32479 | -120.51630 | 34739 ft | 427 kts | 243° |
| 2026-04-25 15:36 | 34.31146 | -120.54850 | 34852 ft | 429 kts | 243° |
| 2026-04-25 15:36 | 34.29831 | -120.58089 | 35090 ft | 427 kts | 244° |
| 2026-04-25 15:37 | 34.28542 | -120.61307 | 35381 ft | 425 kts | 244° |
| 2026-04-25 15:37 | 34.27263 | -120.64520 | 35641 ft | 423 kts | 244° |
| 2026-04-25 15:37 | 34.25994 | -120.67721 | 35858 ft | 422 kts | 244° |
| 2026-04-25 15:37 | 34.24723 | -120.70928 | 36027 ft | 422 kts | 244° |
| 2026-04-25 15:38 | 34.23458 | -120.74118 | 36235 ft | 421 kts | 244° |
| 2026-04-25 15:38 | 34.22192 | -120.77310 | 36436 ft | 420 kts | 244° |
| 2026-04-25 15:38 | 34.20926 | -120.80496 | 36632 ft | 420 kts | 244° |
| 2026-04-25 15:38 | 34.19665 | -120.83668 | 36821 ft | 419 kts | 243° |
| 2026-04-25 15:39 | 34.18405 | -120.86832 | 36994 ft | 418 kts | 243° |
| 2026-04-25 15:39 | 34.17144 | -120.89995 | 37171 ft | 418 kts | 243° |
| 2026-04-25 15:39 | 34.15884 | -120.93153 | 37314 ft | 418 kts | 243° |
| 2026-04-25 15:39 | 34.14616 | -120.96328 | 37342 ft | 420 kts | 243° |
| 2026-04-25 15:40 | 34.12930 | -121.00543 | 37377 ft | 423 kts | 243° |
| 2026-04-25 15:40 | 34.09492 | -121.09126 | 37457 ft | 427 kts | 243° |
| 2026-04-25 15:41 | 34.06898 | -121.15586 | 37518 ft | 429 kts | 243° |
| 2026-04-25 15:41 | 34.04292 | -121.22065 | 37661 ft | 429 kts | 243° |
| 2026-04-25 15:42 | 34.02128 | -121.27437 | 37827 ft | 428 kts | 243° |
| 2026-04-25 15:42 | 33.99524 | -121.33887 | 37971 ft | 427 kts | 243° |
| 2026-04-25 15:43 | 33.96926 | -121.40311 | 38001 ft | 426 kts | 243° |
| 2026-04-25 15:43 | 33.93914 | -121.47745 | 38008 ft | 424 kts | 243° |
| 2026-04-25 15:44 | 33.91745 | -121.53085 | 38012 ft | 423 kts | 243° |
| 2026-04-25 15:44 | 33.89160 | -121.59442 | 38026 ft | 423 kts | 243° |
| 2026-04-25 15:45 | 33.86566 | -121.65808 | 38014 ft | 423 kts | 243° |
| 2026-04-25 15:45 | 33.84407 | -121.71097 | 38012 ft | 424 kts | 243° |
| 2026-04-25 15:46 | 33.81366 | -121.78531 | 38012 ft | 425 kts | 243° |
| 2026-04-25 15:46 | 33.78756 | -121.84903 | 38018 ft | 425 kts | 243° |
| 2026-04-25 15:47 | 33.76140 | -121.91274 | 38030 ft | 425 kts | 243° |
| 2026-04-25 15:47 | 33.73516 | -121.97654 | 38018 ft | 426 kts | 242° |
| 2026-04-25 15:48 | 33.70890 | -122.04027 | 38016 ft | 426 kts | 242° |
| 2026-04-25 15:48 | 33.68262 | -122.10392 | 38018 ft | 426 kts | 242° |
| 2026-04-25 15:49 | 33.65621 | -122.16778 | 38022 ft | 427 kts | 242° |
| 2026-04-25 15:49 | 33.62996 | -122.23115 | 38025 ft | 427 kts | 242° |
| 2026-04-25 15:50 | 33.60330 | -122.29536 | 38028 ft | 427 kts | 242° |
| 2026-04-25 15:50 | 33.57677 | -122.35917 | 38025 ft | 428 kts | 242° |
| 2026-04-25 15:51 | 33.55469 | -122.41217 | 38031 ft | 428 kts | 242° |
| 2026-04-25 15:51 | 33.52368 | -122.48650 | 38026 ft | 429 kts | 242° |
| 2026-04-25 15:52 | 33.49673 | -122.55097 | 38033 ft | 430 kts | 242° |
| 2026-04-25 15:52 | 33.47416 | -122.61726 | 38038 ft | 433 kts | 252° |
| 2026-04-25 15:53 | 33.46018 | -122.68757 | 38039 ft | 434 kts | 254° |
| 2026-04-25 15:53 | 33.44671 | -122.75765 | 38036 ft | 435 kts | 253° |
| 2026-04-25 15:54 | 33.43258 | -122.82809 | 38035 ft | 436 kts | 253° |
| 2026-04-25 15:54 | 33.41796 | -122.89899 | 38039 ft | 436 kts | 253° |
| 2026-04-25 15:55 | 33.40328 | -122.96951 | 38039 ft | 437 kts | 253° |
| 2026-04-25 15:55 | 33.38857 | -123.03995 | 38037 ft | 437 kts | 253° |
| 2026-04-25 15:56 | 33.37382 | -123.11045 | 38037 ft | 437 kts | 253° |
| 2026-04-25 15:56 | 33.35901 | -123.18104 | 38044 ft | 437 kts | 253° |
| 2026-04-25 15:57 | 33.34418 | -123.25149 | 38034 ft | 437 kts | 253° |
| 2026-04-25 15:57 | 33.32931 | -123.32194 | 38049 ft | 437 kts | 253° |
| 2026-04-25 15:58 | 33.31439 | -123.39241 | 38041 ft | 437 kts | 253° |
| 2026-04-25 15:58 | 33.29944 | -123.46281 | 38047 ft | 437 kts | 253° |
| 2026-04-25 15:59 | 33.28456 | -123.53267 | 38043 ft | 436 kts | 253° |
| 2026-04-25 15:59 | 33.26960 | -123.60269 | 38045 ft | 436 kts | 253° |
| 2026-04-25 16:00 | 33.25951 | -123.64981 | 38047 ft | 436 kts | 253° |
| 2026-04-25 16:00 | 33.23948 | -123.74304 | 38040 ft | 435 kts | 253° |
| 2026-04-25 16:01 | 33.22427 | -123.81357 | 38054 ft | 436 kts | 253° |
| 2026-04-25 16:01 | 33.20923 | -123.88318 | 38048 ft | 436 kts | 253° |
| 2026-04-25 16:02 | 33.19394 | -123.95373 | 38048 ft | 437 kts | 253° |
| 2026-04-25 16:02 | 33.17865 | -124.02404 | 38046 ft | 438 kts | 253° |
| 2026-04-25 16:03 | 33.16340 | -124.09398 | 38049 ft | 438 kts | 253° |
| 2026-04-25 16:03 | 33.14802 | -124.16430 | 38040 ft | 438 kts | 253° |
| 2026-04-25 16:04 | 33.13259 | -124.23462 | 38051 ft | 438 kts | 253° |
| 2026-04-25 16:04 | 33.11714 | -124.30488 | 38044 ft | 438 kts | 253° |
| 2026-04-25 16:05 | 33.10168 | -124.37499 | 38050 ft | 437 kts | 253° |
| 2026-04-25 16:06 | 33.08004 | -124.48071 | 38055 ft | 439 kts | 260° |
| 2026-04-25 16:06 | 33.07694 | -124.55360 | 38058 ft | 442 kts | 267° |
| 2026-04-25 16:07 | 33.08350 | -124.62686 | 38068 ft | 447 kts | 274° |
| 2026-04-25 16:07 | 33.09370 | -124.70002 | 38062 ft | 447 kts | 275° |
| 2026-04-25 16:08 | 33.10392 | -124.77321 | 38059 ft | 448 kts | 275° |
| 2026-04-25 16:08 | 33.11382 | -124.84653 | 38063 ft | 448 kts | 274° |
| 2026-04-25 16:09 | 33.12354 | -124.91993 | 38056 ft | 448 kts | 274° |
| 2026-04-25 16:09 | 33.13317 | -124.99337 | 38060 ft | 448 kts | 274° |
| 2026-04-25 16:10 | 33.14276 | -125.06687 | 38060 ft | 448 kts | 274° |
| 2026-04-25 16:10 | 33.15233 | -125.14040 | 38060 ft | 448 kts | 274° |
| 2026-04-25 16:11 | 33.16185 | -125.21395 | 38059 ft | 449 kts | 274° |
| 2026-04-25 16:11 | 33.17133 | -125.28758 | 38062 ft | 449 kts | 274° |
| 2026-04-25 16:12 | 33.18078 | -125.36126 | 38060 ft | 449 kts | 274° |
| 2026-04-25 16:12 | 33.19019 | -125.43495 | 38066 ft | 449 kts | 274° |
| 2026-04-25 16:13 | 33.19956 | -125.50871 | 38064 ft | 449 kts | 274° |
| 2026-04-25 16:13 | 33.20888 | -125.58249 | 38065 ft | 450 kts | 274° |
| 2026-04-25 16:14 | 33.21817 | -125.65634 | 38064 ft | 450 kts | 274° |
| 2026-04-25 16:14 | 33.22741 | -125.73020 | 38064 ft | 449 kts | 274° |
| 2026-04-25 16:15 | 33.23661 | -125.80401 | 38061 ft | 449 kts | 274° |
| 2026-04-25 16:15 | 33.24575 | -125.87779 | 38066 ft | 449 kts | 274° |
| 2026-04-25 16:16 | 33.25485 | -125.95158 | 38065 ft | 449 kts | 274° |
| 2026-04-25 16:16 | 33.26390 | -126.02538 | 38063 ft | 449 kts | 274° |
| 2026-04-25 16:17 | 33.27291 | -126.09914 | 38060 ft | 449 kts | 274° |
| 2026-04-25 16:17 | 33.28187 | -126.17295 | 38062 ft | 449 kts | 274° |
| 2026-04-25 16:18 | 33.29074 | -126.24633 | 38066 ft | 449 kts | 274° |
| 2026-04-25 16:18 | 33.29961 | -126.32010 | 38072 ft | 449 kts | 274° |
| 2026-04-25 16:19 | 33.30845 | -126.39401 | 38066 ft | 449 kts | 275° |
| 2026-04-25 16:19 | 33.31730 | -126.46841 | 38071 ft | 449 kts | 274° |
| 2026-04-25 16:20 | 33.33036 | -126.57884 | 38068 ft | 449 kts | 274° |
| 2026-04-25 16:21 | 33.34338 | -126.68986 | 38072 ft | 449 kts | 275° |
| 2026-04-25 16:21 | 33.35206 | -126.76439 | 38071 ft | 450 kts | 275° |
| 2026-04-25 16:22 | 33.36059 | -126.83795 | 38071 ft | 449 kts | 274° |
| 2026-04-25 16:22 | 33.36913 | -126.91198 | 38074 ft | 450 kts | 274° |
| 2026-04-25 16:23 | 33.37763 | -126.98609 | 38073 ft | 449 kts | 274° |
| 2026-04-25 16:23 | 33.38608 | -127.06021 | 38079 ft | 449 kts | 275° |
| 2026-04-25 16:24 | 33.39449 | -127.13435 | 38075 ft | 449 kts | 274° |
| 2026-04-25 16:24 | 33.40285 | -127.20844 | 38077 ft | 450 kts | 275° |
| 2026-04-25 16:25 | 33.41117 | -127.28257 | 38077 ft | 450 kts | 274° |
| 2026-04-25 16:25 | 33.41945 | -127.35679 | 38076 ft | 450 kts | 274° |
| 2026-04-25 16:26 | 33.42636 | -127.41897 | 38073 ft | 450 kts | 274° |
| 2026-04-25 16:26 | 33.43456 | -127.49326 | 38081 ft | 450 kts | 274° |
| 2026-04-25 16:27 | 33.44273 | -127.56756 | 38076 ft | 450 kts | 274° |
| 2026-04-25 16:27 | 33.45085 | -127.64191 | 38085 ft | 450 kts | 274° |
| 2026-04-25 16:28 | 33.45893 | -127.71634 | 38079 ft | 451 kts | 274° |
| 2026-04-25 16:28 | 33.46697 | -127.79076 | 38080 ft | 451 kts | 274° |
| 2026-04-25 16:29 | 33.47496 | -127.86520 | 38081 ft | 450 kts | 274° |
| 2026-04-25 16:29 | 33.48291 | -127.93961 | 38084 ft | 450 kts | 274° |
| 2026-04-25 16:30 | 33.49081 | -128.01404 | 38083 ft | 450 kts | 274° |
| 2026-04-25 16:30 | 33.49866 | -128.08845 | 38088 ft | 450 kts | 274° |
| 2026-04-25 16:31 | 33.50647 | -128.16291 | 38084 ft | 450 kts | 274° |
| 2026-04-25 16:31 | 33.51424 | -128.23737 | 38093 ft | 450 kts | 274° |
| 2026-04-25 16:32 | 33.52196 | -128.31185 | 38087 ft | 450 kts | 274° |
| 2026-04-25 16:32 | 33.52964 | -128.38633 | 38093 ft | 450 kts | 274° |
| 2026-04-25 16:33 | 33.53727 | -128.46084 | 38088 ft | 450 kts | 274° |
| 2026-04-25 16:33 | 33.54485 | -128.53531 | 38096 ft | 450 kts | 274° |
| 2026-04-25 16:34 | 33.55234 | -128.60933 | 38091 ft | 450 kts | 274° |
| 2026-04-25 16:34 | 33.55983 | -128.68384 | 38281 ft | 453 kts | 276° |
| 2026-04-25 16:35 | 33.56738 | -128.75929 | 38177 ft | 458 kts | 276° |
| 2026-04-25 16:35 | 33.57496 | -128.83540 | 38108 ft | 461 kts | 276° |
| 2026-04-25 16:35 | 33.57698 | -128.87354 | 38086 ft | 459 kts | 265° |
| 2026-04-25 16:36 | 33.57098 | -128.91109 | 38107 ft | 460 kts | 252° |
| 2026-04-25 16:36 | 33.54035 | -128.97810 | 38112 ft | 463 kts | 231° |
| 2026-04-25 16:37 | 33.49696 | -129.03567 | 38107 ft | 466 kts | 230° |
| 2026-04-25 16:37 | 33.45319 | -129.09324 | 38105 ft | 468 kts | 230° |
| 2026-04-25 16:38 | 33.40957 | -129.15143 | 38103 ft | 470 kts | 231° |
| 2026-04-25 16:38 | 33.36608 | -129.20995 | 38107 ft | 471 kts | 231° |
| 2026-04-25 16:39 | 33.32254 | -129.26859 | 38101 ft | 472 kts | 231° |
| 2026-04-25 16:39 | 33.27884 | -129.32734 | 38100 ft | 473 kts | 231° |
| 2026-04-25 16:40 | 33.23503 | -129.38611 | 38101 ft | 474 kts | 231° |
| 2026-04-25 16:40 | 33.19115 | -129.44486 | 38104 ft | 474 kts | 231° |
| 2026-04-25 16:41 | 33.14726 | -129.50353 | 38102 ft | 474 kts | 231° |
| 2026-04-25 16:41 | 33.08141 | -129.59137 | 38106 ft | 473 kts | 231° |
| 2026-04-25 16:42 | 33.03749 | -129.64985 | 38103 ft | 473 kts | 231° |
| 2026-04-25 16:42 | 32.99360 | -129.70818 | 38105 ft | 472 kts | 231° |
| 2026-04-25 16:43 | 32.94977 | -129.76635 | 38117 ft | 472 kts | 231° |
| 2026-04-25 16:43 | 32.90588 | -129.82451 | 38114 ft | 472 kts | 231° |
| 2026-04-25 16:44 | 32.86197 | -129.88259 | 38113 ft | 472 kts | 231° |
| 2026-04-25 16:44 | 32.81807 | -129.94056 | 38110 ft | 472 kts | 231° |
| 2026-04-25 16:45 | 32.77417 | -129.99846 | 38113 ft | 471 kts | 231° |
| 2026-04-25 16:45 | 32.73025 | -130.05628 | 38115 ft | 471 kts | 231° |
| 2026-04-25 16:46 | 32.68629 | -130.11405 | 38108 ft | 471 kts | 231° |
| 2026-04-25 16:46 | 32.65684 | -130.15271 | 38116 ft | 471 kts | 231° |
| 2026-04-25 16:47 | 32.59832 | -130.22942 | 38111 ft | 471 kts | 231° |
| 2026-04-25 16:47 | 32.55430 | -130.28700 | 38116 ft | 471 kts | 231° |
| 2026-04-25 16:48 | 32.51026 | -130.34452 | 38115 ft | 471 kts | 231° |
| 2026-04-25 16:48 | 32.46618 | -130.40201 | 38115 ft | 471 kts | 231° |
| 2026-04-25 16:49 | 32.42210 | -130.45939 | 38115 ft | 471 kts | 231° |
| 2026-04-25 16:49 | 32.37798 | -130.51675 | 38120 ft | 471 kts | 231° |
| 2026-04-25 16:50 | 32.33385 | -130.57402 | 38123 ft | 471 kts | 231° |
| 2026-04-25 16:50 | 32.28972 | -130.63121 | 38120 ft | 471 kts | 231° |
| 2026-04-25 16:51 | 32.24563 | -130.68827 | 38118 ft | 470 kts | 231° |
| 2026-04-25 16:51 | 32.21607 | -130.72646 | 38117 ft | 470 kts | 231° |
| 2026-04-25 16:52 | 32.15733 | -130.80225 | 38120 ft | 470 kts | 231° |
| 2026-04-25 16:52 | 32.11323 | -130.85904 | 38121 ft | 469 kts | 231° |
| 2026-04-25 16:53 | 32.04714 | -130.94400 | 38122 ft | 468 kts | 231° |
| 2026-04-25 16:54 | 32.00307 | -131.00055 | 38127 ft | 468 kts | 231° |
| 2026-04-25 16:54 | 31.95905 | -131.05693 | 38127 ft | 467 kts | 231° |
| 2026-04-25 16:55 | 31.91507 | -131.11318 | 38124 ft | 467 kts | 231° |
| 2026-04-25 16:55 | 31.87107 | -131.16939 | 38123 ft | 467 kts | 231° |
| 2026-04-25 16:56 | 31.82705 | -131.22552 | 38125 ft | 466 kts | 231° |
| 2026-04-25 16:56 | 31.78307 | -131.28152 | 38122 ft | 466 kts | 231° |
| 2026-04-25 16:57 | 31.73909 | -131.33743 | 38129 ft | 466 kts | 232° |
| 2026-04-25 16:57 | 31.69515 | -131.39320 | 38129 ft | 465 kts | 232° |
| 2026-04-25 16:58 | 31.65117 | -131.44896 | 38124 ft | 465 kts | 232° |
| 2026-04-25 16:58 | 31.60726 | -131.50454 | 38122 ft | 464 kts | 232° |
| 2026-04-25 16:59 | 31.56334 | -131.56004 | 38124 ft | 464 kts | 232° |
| 2026-04-25 16:59 | 31.51945 | -131.61543 | 38126 ft | 464 kts | 232° |
| 2026-04-25 17:00 | 31.47553 | -131.67077 | 38147 ft | 463 kts | 232° |
| 2026-04-25 17:00 | 31.43164 | -131.72599 | 38134 ft | 463 kts | 232° |
| 2026-04-25 17:01 | 31.38767 | -131.78123 | 38125 ft | 463 kts | 232° |
| 2026-04-25 17:01 | 31.34375 | -131.83633 | 38128 ft | 463 kts | 232° |
| 2026-04-25 17:02 | 31.29984 | -131.89134 | 38127 ft | 462 kts | 232° |
| 2026-04-25 17:02 | 31.25594 | -131.94625 | 38130 ft | 462 kts | 232° |
| 2026-04-25 17:03 | 31.21204 | -132.00110 | 38132 ft | 462 kts | 232° |
| 2026-04-25 17:03 | 31.16821 | -132.05579 | 38134 ft | 461 kts | 232° |
| 2026-04-25 17:04 | 31.12572 | -132.11152 | 38128 ft | 455 kts | 239° |
| 2026-04-25 17:04 | 31.09359 | -132.17433 | 38143 ft | 448 kts | 248° |
| 2026-04-25 17:05 | 31.07115 | -132.24150 | 38138 ft | 443 kts | 255° |
| 2026-04-25 17:05 | 31.04160 | -132.34361 | 38138 ft | 443 kts | 255° |
| 2026-04-25 17:06 | 31.02171 | -132.41161 | 38140 ft | 443 kts | 255° |
| 2026-04-25 17:06 | 31.00501 | -132.46805 | 38138 ft | 443 kts | 255° |
| 2026-04-25 17:07 | 30.98485 | -132.53583 | 38141 ft | 442 kts | 255° |
| 2026-04-25 17:07 | 30.96466 | -132.60347 | 38141 ft | 442 kts | 255° |
| 2026-04-25 17:08 | 30.94448 | -132.67097 | 38144 ft | 441 kts | 255° |
| 2026-04-25 17:08 | 30.92427 | -132.73841 | 38144 ft | 440 kts | 255° |
| 2026-04-25 17:09 | 30.90410 | -132.80560 | 38156 ft | 440 kts | 255° |
| 2026-04-25 17:09 | 30.88390 | -132.87276 | 38146 ft | 439 kts | 255° |
| 2026-04-25 17:10 | 30.86370 | -132.93979 | 38137 ft | 438 kts | 255° |
| 2026-04-25 17:10 | 30.84351 | -133.00662 | 38151 ft | 437 kts | 255° |
| 2026-04-25 17:11 | 30.82331 | -133.07332 | 38148 ft | 437 kts | 255° |
| 2026-04-25 17:11 | 30.80312 | -133.13987 | 38143 ft | 436 kts | 255° |
| 2026-04-25 17:12 | 30.78291 | -133.20635 | 38143 ft | 436 kts | 255° |
| 2026-04-25 17:12 | 30.76271 | -133.27266 | 38145 ft | 435 kts | 256° |
| 2026-04-25 17:13 | 30.74589 | -133.32779 | 38148 ft | 435 kts | 256° |
| 2026-04-25 17:13 | 30.72222 | -133.40517 | 38150 ft | 434 kts | 255° |
| 2026-04-25 17:14 | 30.70194 | -133.47132 | 38146 ft | 434 kts | 256° |
| 2026-04-25 17:14 | 30.68180 | -133.53688 | 38149 ft | 434 kts | 256° |
| 2026-04-25 17:15 | 30.66151 | -133.60280 | 38153 ft | 433 kts | 256° |
| 2026-04-25 17:15 | 30.64120 | -133.66864 | 38154 ft | 433 kts | 256° |
| 2026-04-25 17:16 | 30.62087 | -133.73440 | 38159 ft | 432 kts | 256° |
| 2026-04-25 17:16 | 30.60055 | -133.80000 | 38151 ft | 432 kts | 255° |
| 2026-04-25 17:17 | 30.58020 | -133.86557 | 38158 ft | 431 kts | 256° |
| 2026-04-25 17:17 | 30.55984 | -133.93105 | 38165 ft | 431 kts | 255° |
| 2026-04-25 17:18 | 30.53946 | -133.99644 | 38160 ft | 431 kts | 255° |
| 2026-04-25 17:18 | 30.51911 | -134.06162 | 38162 ft | 430 kts | 255° |
| 2026-04-25 17:19 | 30.49870 | -134.12685 | 38167 ft | 430 kts | 255° |
| 2026-04-25 17:19 | 30.47829 | -134.19195 | 38160 ft | 429 kts | 255° |
| 2026-04-25 17:20 | 30.45787 | -134.25695 | 38167 ft | 429 kts | 255° |
| 2026-04-25 17:20 | 30.43742 | -134.32193 | 38167 ft | 429 kts | 255° |
| 2026-04-25 17:21 | 30.41697 | -134.38675 | 38169 ft | 429 kts | 255° |
| 2026-04-25 17:21 | 30.39649 | -134.45158 | 38178 ft | 429 kts | 255° |
| 2026-04-25 17:22 | 30.37945 | -134.50539 | 38173 ft | 428 kts | 255° |
| 2026-04-25 17:22 | 30.35543 | -134.58114 | 38182 ft | 428 kts | 255° |
| 2026-04-25 17:23 | 30.33486 | -134.64583 | 38174 ft | 428 kts | 255° |
| 2026-04-25 17:23 | 30.31439 | -134.71009 | 38176 ft | 428 kts | 255° |
| 2026-04-25 17:24 | 30.29376 | -134.77474 | 38173 ft | 428 kts | 255° |
| 2026-04-25 17:24 | 30.27314 | -134.83921 | 38170 ft | 428 kts | 255° |
| 2026-04-25 17:25 | 30.25244 | -134.90384 | 38174 ft | 428 kts | 255° |
| 2026-04-25 17:25 | 30.23175 | -134.96827 | 38177 ft | 427 kts | 255° |
| 2026-04-25 17:26 | 30.21104 | -135.03265 | 38181 ft | 427 kts | 255° |
| 2026-04-25 17:26 | 30.19031 | -135.09699 | 38179 ft | 427 kts | 255° |
| 2026-04-25 17:27 | 30.16953 | -135.16134 | 38184 ft | 427 kts | 255° |
| 2026-04-25 17:27 | 30.15561 | -135.20439 | 38181 ft | 427 kts | 255° |
| 2026-04-25 17:28 | 30.12793 | -135.28982 | 38181 ft | 427 kts | 255° |
| 2026-04-25 17:28 | 30.10706 | -135.35408 | 38189 ft | 427 kts | 255° |
| 2026-04-25 17:29 | 30.08616 | -135.41830 | 38188 ft | 427 kts | 255° |
| 2026-04-25 17:29 | 30.06527 | -135.48240 | 38189 ft | 427 kts | 255° |
| 2026-04-25 17:30 | 30.04432 | -135.54653 | 38189 ft | 427 kts | 255° |
| 2026-04-25 17:30 | 30.02332 | -135.61069 | 38179 ft | 427 kts | 255° |
| 2026-04-25 17:31 | 30.00246 | -135.67432 | 38192 ft | 427 kts | 255° |
| 2026-04-25 17:31 | 29.98127 | -135.73883 | 38196 ft | 427 kts | 255° |
| 2026-04-25 17:32 | 29.96032 | -135.80247 | 38199 ft | 427 kts | 255° |
| 2026-04-25 17:32 | 29.93918 | -135.86658 | 38197 ft | 427 kts | 255° |
| 2026-04-25 17:33 | 29.91803 | -135.93062 | 38198 ft | 427 kts | 255° |
| 2026-04-25 17:33 | 29.89684 | -135.99464 | 38197 ft | 427 kts | 255° |
| 2026-04-25 17:34 | 29.87562 | -136.05861 | 38196 ft | 427 kts | 255° |
| 2026-04-25 17:34 | 29.85437 | -136.12256 | 38201 ft | 428 kts | 255° |
| 2026-04-25 17:35 | 29.83309 | -136.18652 | 38206 ft | 428 kts | 255° |
| 2026-04-25 17:35 | 29.81173 | -136.25057 | 38206 ft | 428 kts | 255° |
| 2026-04-25 17:36 | 29.79034 | -136.31457 | 38208 ft | 429 kts | 254° |
| 2026-04-25 17:36 | 29.76891 | -136.37859 | 38200 ft | 429 kts | 254° |
| 2026-04-25 17:37 | 29.74743 | -136.44265 | 38204 ft | 429 kts | 254° |
| 2026-04-25 17:37 | 29.72590 | -136.50674 | 38207 ft | 429 kts | 254° |
| 2026-04-25 17:38 | 29.71163 | -136.54913 | 38209 ft | 429 kts | 254° |
| 2026-04-25 17:38 | 29.68272 | -136.63489 | 38210 ft | 430 kts | 254° |
| 2026-04-25 17:39 | 29.66120 | -136.69857 | 38211 ft | 430 kts | 254° |
| 2026-04-25 17:39 | 29.63938 | -136.76303 | 38212 ft | 430 kts | 254° |
| 2026-04-25 17:40 | 29.61776 | -136.82679 | 38211 ft | 431 kts | 254° |
| 2026-04-25 17:40 | 29.59598 | -136.89088 | 38215 ft | 431 kts | 254° |
| 2026-04-25 17:41 | 29.57402 | -136.95541 | 38215 ft | 431 kts | 254° |
| 2026-04-25 17:41 | 29.55230 | -137.01912 | 38213 ft | 431 kts | 254° |
| 2026-04-25 17:42 | 29.53038 | -137.08328 | 38217 ft | 432 kts | 254° |
| 2026-04-25 17:42 | 29.50841 | -137.14745 | 38214 ft | 432 kts | 254° |
| 2026-04-25 17:43 | 29.48642 | -137.21159 | 38210 ft | 432 kts | 254° |
| 2026-04-25 17:43 | 29.46436 | -137.27581 | 38216 ft | 433 kts | 254° |
| 2026-04-25 17:44 | 29.44225 | -137.34007 | 38218 ft | 433 kts | 253° |
| 2026-04-25 17:44 | 29.42011 | -137.40429 | 38217 ft | 433 kts | 253° |
| 2026-04-25 17:45 | 29.40524 | -137.44733 | 38224 ft | 433 kts | 253° |
| 2026-04-25 17:45 | 29.37565 | -137.53288 | 38227 ft | 434 kts | 253° |
| 2026-04-25 17:46 | 29.35338 | -137.59713 | 38224 ft | 434 kts | 253° |
| 2026-04-25 17:46 | 29.33106 | -137.66138 | 38226 ft | 434 kts | 253° |
| 2026-04-25 17:47 | 29.30869 | -137.72568 | 38222 ft | 434 kts | 253° |
| 2026-04-25 17:47 | 29.28629 | -137.78994 | 38217 ft | 434 kts | 253° |
| 2026-04-25 17:48 | 29.25264 | -137.88627 | 38219 ft | 434 kts | 253° |
| 2026-04-25 17:49 | 29.23017 | -137.95043 | 38219 ft | 434 kts | 253° |
| 2026-04-25 17:49 | 29.20766 | -138.01461 | 38226 ft | 434 kts | 253° |
| 2026-04-25 17:50 | 29.18510 | -138.07880 | 38224 ft | 435 kts | 253° |
| 2026-04-25 17:50 | 29.16252 | -138.14296 | 38228 ft | 435 kts | 253° |
| 2026-04-25 17:51 | 29.13988 | -138.20714 | 38225 ft | 435 kts | 253° |
| 2026-04-25 17:51 | 29.11721 | -138.27132 | 38227 ft | 435 kts | 253° |
| 2026-04-25 17:52 | 29.09447 | -138.33556 | 38224 ft | 436 kts | 253° |
| 2026-04-25 17:52 | 29.07185 | -138.39936 | 38225 ft | 436 kts | 253° |
| 2026-04-25 17:53 | 29.04902 | -138.46363 | 38232 ft | 437 kts | 253° |
| 2026-04-25 17:53 | 29.02986 | -138.51750 | 38225 ft | 437 kts | 253° |
| 2026-04-25 17:54 | 29.00696 | -138.58175 | 38227 ft | 437 kts | 253° |
| 2026-04-25 17:54 | 28.98399 | -138.64609 | 38228 ft | 437 kts | 252° |
| 2026-04-25 17:55 | 28.96101 | -138.71036 | 38237 ft | 437 kts | 252° |
| 2026-04-25 17:55 | 28.93799 | -138.77462 | 38232 ft | 438 kts | 252° |
| 2026-04-25 17:56 | 28.91489 | -138.83897 | 38228 ft | 438 kts | 252° |
| 2026-04-25 17:56 | 28.89179 | -138.90324 | 38235 ft | 438 kts | 252° |
| 2026-04-25 17:57 | 28.86865 | -138.96750 | 38226 ft | 438 kts | 252° |
| 2026-04-25 17:57 | 28.84545 | -139.03179 | 38232 ft | 438 kts | 252° |
| 2026-04-25 17:58 | 28.82222 | -139.09608 | 38232 ft | 438 kts | 252° |
| 2026-04-25 17:58 | 28.79894 | -139.16036 | 38227 ft | 438 kts | 252° |
| 2026-04-25 17:59 | 28.77566 | -139.22457 | 38232 ft | 438 kts | 252° |
| 2026-04-25 17:59 | 28.75249 | -139.28835 | 38233 ft | 439 kts | 252° |
| 2026-04-25 18:00 | 28.72912 | -139.35257 | 38238 ft | 439 kts | 252° |
| 2026-04-25 18:00 | 28.70572 | -139.41678 | 38234 ft | 439 kts | 252° |
| 2026-04-25 18:01 | 28.68224 | -139.48092 | 38233 ft | 439 kts | 252° |
| 2026-04-25 18:01 | 28.65852 | -139.54545 | 38237 ft | 439 kts | 252° |
| 2026-04-25 18:02 | 28.63503 | -139.60927 | 38235 ft | 440 kts | 252° |
| 2026-04-25 18:02 | 28.61139 | -139.67341 | 38235 ft | 440 kts | 251° |
| 2026-04-25 18:03 | 28.58771 | -139.73759 | 38233 ft | 440 kts | 251° |
| 2026-04-25 18:03 | 28.56393 | -139.80191 | 38232 ft | 440 kts | 251° |
| 2026-04-25 18:04 | 28.54015 | -139.86612 | 38234 ft | 441 kts | 251° |
| 2026-04-25 18:04 | 28.51634 | -139.93030 | 38233 ft | 441 kts | 251° |
| 2026-04-25 18:05 | 28.49250 | -139.99447 | 38233 ft | 441 kts | 251° |
| 2026-04-25 18:05 | 28.46859 | -140.05870 | 38238 ft | 441 kts | 251° |
| 2026-04-25 18:06 | 28.44467 | -140.12286 | 38232 ft | 441 kts | 251° |
| 2026-04-25 18:06 | 28.42070 | -140.18704 | 38232 ft | 441 kts | 251° |
| 2026-04-25 18:07 | 28.39667 | -140.25126 | 38231 ft | 441 kts | 251° |
| 2026-04-25 18:07 | 28.37265 | -140.31535 | 38238 ft | 442 kts | 251° |
| 2026-04-25 18:08 | 28.34858 | -140.37946 | 38233 ft | 442 kts | 251° |
| 2026-04-25 18:08 | 28.32439 | -140.44380 | 38230 ft | 442 kts | 251° |
| 2026-04-25 18:09 | 28.30026 | -140.50785 | 38232 ft | 442 kts | 251° |
| 2026-04-25 18:09 | 28.27620 | -140.57161 | 38234 ft | 442 kts | 250° |
| 2026-04-25 18:10 | 28.25193 | -140.63582 | 38232 ft | 443 kts | 250° |
| 2026-04-25 18:10 | 28.22765 | -140.69995 | 38231 ft | 443 kts | 250° |
| 2026-04-25 18:11 | 28.20335 | -140.76402 | 38235 ft | 443 kts | 250° |
| 2026-04-25 18:11 | 28.17898 | -140.82819 | 38233 ft | 443 kts | 250° |
| 2026-04-25 18:12 | 28.15461 | -140.89222 | 38229 ft | 443 kts | 250° |
| 2026-04-25 18:12 | 28.13017 | -140.95635 | 38235 ft | 443 kts | 250° |
| 2026-04-25 18:13 | 28.10574 | -141.02034 | 38233 ft | 443 kts | 250° |
| 2026-04-25 18:13 | 28.08125 | -141.08436 | 38234 ft | 443 kts | 250° |
| 2026-04-25 18:14 | 28.04446 | -141.18036 | 38232 ft | 443 kts | 250° |
| 2026-04-25 18:14 | 28.01991 | -141.24429 | 38231 ft | 443 kts | 250° |
| 2026-04-25 18:15 | 27.99528 | -141.30832 | 38233 ft | 443 kts | 250° |
| 2026-04-25 18:15 | 27.97066 | -141.37223 | 38235 ft | 444 kts | 250° |
| 2026-04-25 18:16 | 27.94595 | -141.43625 | 38229 ft | 444 kts | 250° |
| 2026-04-25 18:17 | 27.90899 | -141.53181 | 38229 ft | 444 kts | 250° |
| 2026-04-25 18:17 | 27.88418 | -141.59583 | 38237 ft | 444 kts | 250° |
| 2026-04-25 18:18 | 27.85937 | -141.65974 | 38232 ft | 445 kts | 249° |
| 2026-04-25 18:18 | 27.83448 | -141.72375 | 38232 ft | 445 kts | 249° |
| 2026-04-25 18:19 | 27.80957 | -141.78773 | 38235 ft | 445 kts | 249° |
| 2026-04-25 18:19 | 27.78457 | -141.85181 | 38235 ft | 445 kts | 249° |
| 2026-04-25 18:20 | 27.75958 | -141.91576 | 38228 ft | 446 kts | 249° |
| 2026-04-25 18:20 | 27.73451 | -141.97980 | 38229 ft | 446 kts | 249° |
| 2026-04-25 18:21 | 27.70941 | -142.04384 | 38229 ft | 446 kts | 249° |
| 2026-04-25 18:21 | 27.68431 | -142.10774 | 38233 ft | 446 kts | 249° |
| 2026-04-25 18:22 | 27.65914 | -142.17175 | 38233 ft | 446 kts | 249° |
| 2026-04-25 18:22 | 27.63393 | -142.23574 | 38226 ft | 446 kts | 249° |
| 2026-04-25 18:23 | 27.60872 | -142.29964 | 38230 ft | 447 kts | 249° |
| 2026-04-25 18:23 | 27.58341 | -142.36367 | 38229 ft | 447 kts | 249° |
| 2026-04-25 18:24 | 27.55823 | -142.42729 | 38233 ft | 447 kts | 249° |
| 2026-04-25 18:24 | 27.53287 | -142.49124 | 38231 ft | 448 kts | 249° |
| 2026-04-25 18:25 | 27.50744 | -142.55528 | 38232 ft | 448 kts | 249° |
| 2026-04-25 18:25 | 27.48198 | -142.61928 | 38234 ft | 448 kts | 249° |
| 2026-04-25 18:26 | 27.45641 | -142.68346 | 38233 ft | 448 kts | 249° |
| 2026-04-25 18:26 | 27.43088 | -142.74742 | 38229 ft | 449 kts | 249° |
| 2026-04-25 18:27 | 27.40523 | -142.81160 | 38236 ft | 449 kts | 249° |
| 2026-04-25 18:27 | 27.37959 | -142.87564 | 38233 ft | 449 kts | 249° |
| 2026-04-25 18:28 | 27.35391 | -142.93968 | 38227 ft | 449 kts | 248° |
| 2026-04-25 18:28 | 27.32833 | -143.00337 | 38233 ft | 450 kts | 248° |
| 2026-04-25 18:29 | 27.28948 | -143.09992 | 38233 ft | 450 kts | 248° |
| 2026-04-25 18:30 | 27.23793 | -143.22764 | 38223 ft | 451 kts | 248° |
| 2026-04-25 18:30 | 27.21198 | -143.29180 | 38228 ft | 451 kts | 248° |
| 2026-04-25 18:31 | 27.18598 | -143.35596 | 38234 ft | 451 kts | 248° |
| 2026-04-25 18:31 | 27.15996 | -143.42008 | 38222 ft | 452 kts | 248° |
| 2026-04-25 18:32 | 27.13385 | -143.48433 | 38231 ft | 452 kts | 248° |
| 2026-04-25 18:32 | 27.10769 | -143.54857 | 38227 ft | 453 kts | 248° |
| 2026-04-25 18:33 | 27.08147 | -143.61289 | 38229 ft | 453 kts | 248° |
| 2026-04-25 18:33 | 27.05526 | -143.67706 | 38227 ft | 453 kts | 248° |
| 2026-04-25 18:34 | 27.02897 | -143.74133 | 38228 ft | 454 kts | 248° |
| 2026-04-25 18:34 | 27.00277 | -143.80527 | 38233 ft | 454 kts | 248° |
| 2026-04-25 18:35 | 26.97636 | -143.86965 | 38225 ft | 454 kts | 248° |
| 2026-04-25 18:35 | 26.94989 | -143.93404 | 38230 ft | 455 kts | 248° |
| 2026-04-25 18:36 | 26.92340 | -143.99840 | 38230 ft | 455 kts | 248° |
| 2026-04-25 18:36 | 26.89685 | -144.06281 | 38228 ft | 455 kts | 248° |
| 2026-04-25 18:37 | 26.87024 | -144.12724 | 38228 ft | 455 kts | 248° |
| 2026-04-25 18:37 | 26.84363 | -144.19158 | 38226 ft | 456 kts | 248° |
| 2026-04-25 18:38 | 26.81700 | -144.25587 | 38227 ft | 456 kts | 248° |
| 2026-04-25 18:38 | 26.79028 | -144.32028 | 38228 ft | 456 kts | 248° |
| 2026-04-25 18:39 | 26.76356 | -144.38458 | 38230 ft | 456 kts | 248° |
| 2026-04-25 18:39 | 26.73677 | -144.44897 | 38226 ft | 456 kts | 248° |
| 2026-04-25 18:40 | 26.70996 | -144.51328 | 38228 ft | 457 kts | 248° |
| 2026-04-25 18:40 | 26.68308 | -144.57768 | 38226 ft | 457 kts | 248° |
| 2026-04-25 18:41 | 26.65617 | -144.64203 | 38222 ft | 457 kts | 247° |
| 2026-04-25 18:41 | 26.62920 | -144.70644 | 38219 ft | 457 kts | 247° |
| 2026-04-25 18:42 | 26.61116 | -144.74948 | 38227 ft | 457 kts | 247° |
| 2026-04-25 18:42 | 26.57519 | -144.83513 | 38224 ft | 457 kts | 247° |
| 2026-04-25 18:43 | 26.55270 | -144.88859 | 38227 ft | 458 kts | 247° |
| 2026-04-25 18:43 | 26.52544 | -144.95331 | 38222 ft | 458 kts | 247° |
| 2026-04-25 18:44 | 26.49849 | -145.01718 | 38222 ft | 458 kts | 247° |
| 2026-04-25 18:44 | 26.47132 | -145.08150 | 38223 ft | 458 kts | 247° |
| 2026-04-25 18:45 | 26.44410 | -145.14581 | 38225 ft | 459 kts | 247° |
| 2026-04-25 18:45 | 26.41683 | -145.21017 | 38225 ft | 459 kts | 247° |
| 2026-04-25 18:46 | 26.38952 | -145.27451 | 38222 ft | 459 kts | 247° |
| 2026-04-25 18:46 | 26.36222 | -145.33873 | 38222 ft | 459 kts | 247° |
| 2026-04-25 18:47 | 26.33478 | -145.40317 | 38219 ft | 459 kts | 247° |
| 2026-04-25 18:47 | 26.30735 | -145.46751 | 38218 ft | 460 kts | 247° |
| 2026-04-25 18:48 | 26.27989 | -145.53180 | 38219 ft | 460 kts | 247° |
| 2026-04-25 18:48 | 26.25238 | -145.59612 | 38221 ft | 460 kts | 247° |
| 2026-04-25 18:49 | 26.22481 | -145.66048 | 38219 ft | 460 kts | 247° |
| 2026-04-25 18:49 | 26.19723 | -145.72478 | 38218 ft | 460 kts | 247° |
| 2026-04-25 18:50 | 26.16958 | -145.78913 | 38216 ft | 461 kts | 247° |
| 2026-04-25 18:50 | 26.14191 | -145.85345 | 38218 ft | 461 kts | 247° |
| 2026-04-25 18:51 | 26.11889 | -145.90688 | 38213 ft | 461 kts | 247° |
| 2026-04-25 18:51 | 26.08646 | -145.98203 | 38215 ft | 461 kts | 246° |
| 2026-04-25 18:52 | 26.05871 | -146.04624 | 38215 ft | 461 kts | 246° |
| 2026-04-25 18:52 | 26.03088 | -146.11056 | 38219 ft | 461 kts | 246° |
| 2026-04-25 18:53 | 26.00302 | -146.17483 | 38215 ft | 462 kts | 246° |
| 2026-04-25 18:53 | 25.97514 | -146.23909 | 38213 ft | 462 kts | 246° |
| 2026-04-25 18:54 | 25.93334 | -146.33533 | 38214 ft | 463 kts | 246° |
| 2026-04-25 18:55 | 25.90534 | -146.39971 | 38209 ft | 463 kts | 246° |
| 2026-04-25 18:55 | 25.87730 | -146.46409 | 38217 ft | 463 kts | 246° |
| 2026-04-25 18:56 | 25.84917 | -146.52855 | 38209 ft | 464 kts | 246° |
| 2026-04-25 18:56 | 25.82106 | -146.59289 | 38206 ft | 464 kts | 246° |
| 2026-04-25 18:57 | 25.79290 | -146.65725 | 38213 ft | 464 kts | 246° |
| 2026-04-25 18:57 | 25.76461 | -146.72180 | 38208 ft | 464 kts | 246° |
| 2026-04-25 18:58 | 25.73636 | -146.78617 | 38207 ft | 465 kts | 246° |
| 2026-04-25 18:58 | 25.69384 | -146.88287 | 38206 ft | 465 kts | 246° |
| 2026-04-25 18:59 | 25.63700 | -147.01181 | 38205 ft | 466 kts | 246° |
| 2026-04-25 19:00 | 25.59419 | -147.10868 | 38199 ft | 467 kts | 246° |
| 2026-04-25 19:01 | 25.55126 | -147.20561 | 38202 ft | 467 kts | 246° |
| 2026-04-25 19:01 | 25.52263 | -147.27012 | 38213 ft | 468 kts | 246° |
| 2026-04-25 19:02 | 25.47951 | -147.36713 | 38206 ft | 468 kts | 246° |
| 2026-04-25 19:03 | 25.44585 | -147.44268 | 38205 ft | 469 kts | 246° |
| 2026-04-25 19:03 | 25.40740 | -147.52884 | 38201 ft | 469 kts | 246° |
| 2026-04-25 19:04 | 25.36400 | -147.62589 | 38194 ft | 469 kts | 245° |
| 2026-04-25 19:05 | 25.30600 | -147.75527 | 38197 ft | 470 kts | 245° |
| 2026-04-25 19:06 | 25.27691 | -147.82002 | 38194 ft | 470 kts | 245° |
| 2026-04-25 19:06 | 25.23339 | -147.91671 | 38195 ft | 471 kts | 245° |
| 2026-04-25 19:07 | 25.18961 | -148.01378 | 38193 ft | 471 kts | 245° |
| 2026-04-25 19:08 | 25.14566 | -148.11100 | 38190 ft | 472 kts | 245° |
| 2026-04-25 19:09 | 25.09169 | -148.23009 | 38188 ft | 472 kts | 245° |
| 2026-04-25 19:10 | 25.04273 | -148.33786 | 38188 ft | 473 kts | 245° |
| 2026-04-25 19:10 | 25.01323 | -148.40268 | 38188 ft | 473 kts | 245° |
| 2026-04-25 19:11 | 24.98368 | -148.46751 | 38187 ft | 473 kts | 245° |
| 2026-04-25 19:11 | 24.95410 | -148.53232 | 38186 ft | 474 kts | 245° |
| 2026-04-25 19:12 | 24.92444 | -148.59720 | 38182 ft | 474 kts | 245° |
| 2026-04-25 19:12 | 24.89477 | -148.66202 | 38184 ft | 474 kts | 245° |
| 2026-04-25 19:13 | 24.86508 | -148.72678 | 38185 ft | 475 kts | 245° |
| 2026-04-25 19:13 | 24.83524 | -148.79178 | 38181 ft | 475 kts | 245° |
| 2026-04-25 19:14 | 24.80542 | -148.85665 | 38181 ft | 475 kts | 245° |
| 2026-04-25 19:14 | 24.77558 | -148.92147 | 38183 ft | 475 kts | 245° |
| 2026-04-25 19:15 | 24.74584 | -148.98597 | 38180 ft | 475 kts | 244° |
| 2026-04-25 19:15 | 24.71594 | -149.05073 | 38179 ft | 475 kts | 244° |
| 2026-04-25 19:16 | 24.68602 | -149.11546 | 38176 ft | 475 kts | 244° |
| 2026-04-25 19:16 | 24.65608 | -149.18011 | 38175 ft | 474 kts | 244° |
| 2026-04-25 19:17 | 24.62613 | -149.24471 | 38171 ft | 474 kts | 244° |
| 2026-04-25 19:17 | 24.59613 | -149.30933 | 38174 ft | 475 kts | 244° |
| 2026-04-25 19:18 | 24.56609 | -149.37396 | 38174 ft | 475 kts | 244° |
| 2026-04-25 19:18 | 24.53604 | -149.43849 | 38176 ft | 475 kts | 244° |
| 2026-04-25 19:19 | 24.50592 | -149.50310 | 38168 ft | 475 kts | 244° |
| 2026-04-25 19:19 | 24.47575 | -149.56771 | 38171 ft | 475 kts | 244° |
| 2026-04-25 19:20 | 24.44562 | -149.63215 | 38168 ft | 475 kts | 244° |
| 2026-04-25 19:20 | 24.41546 | -149.69658 | 38169 ft | 475 kts | 244° |
| 2026-04-25 19:21 | 24.38526 | -149.76101 | 38167 ft | 475 kts | 244° |
| 2026-04-25 19:21 | 24.33984 | -149.85773 | 38165 ft | 476 kts | 244° |
| 2026-04-25 19:22 | 24.30952 | -149.92217 | 38168 ft | 476 kts | 244° |
| 2026-04-25 19:23 | 24.26390 | -150.01897 | 38164 ft | 476 kts | 244° |
| 2026-04-25 19:23 | 24.21825 | -150.11564 | 38159 ft | 477 kts | 244° |
| 2026-04-25 19:24 | 24.18775 | -150.18014 | 38160 ft | 477 kts | 244° |
| 2026-04-25 19:25 | 24.12666 | -150.30902 | 38160 ft | 477 kts | 244° |
| 2026-04-25 19:25 | 24.09609 | -150.37338 | 38160 ft | 477 kts | 244° |
| 2026-04-25 19:26 | 24.06546 | -150.43777 | 38160 ft | 477 kts | 244° |
| 2026-04-25 19:26 | 24.03482 | -150.50211 | 38159 ft | 477 kts | 244° |
| 2026-04-25 19:27 | 24.01428 | -150.54518 | 38155 ft | 477 kts | 244° |
| 2026-04-25 19:27 | 23.97339 | -150.63084 | 38155 ft | 478 kts | 244° |
| 2026-04-25 19:28 | 23.94260 | -150.69522 | 38153 ft | 478 kts | 243° |
| 2026-04-25 19:28 | 23.91701 | -150.74868 | 38157 ft | 478 kts | 243° |
| 2026-04-25 19:29 | 23.88614 | -150.81306 | 38151 ft | 478 kts | 243° |
| 2026-04-25 19:29 | 23.85524 | -150.87745 | 38153 ft | 478 kts | 243° |
| 2026-04-25 19:30 | 23.82430 | -150.94181 | 38150 ft | 479 kts | 243° |
| 2026-04-25 19:30 | 23.79334 | -151.00615 | 38153 ft | 479 kts | 243° |
| 2026-04-25 19:31 | 23.76234 | -151.07046 | 38153 ft | 479 kts | 243° |
| 2026-04-25 19:31 | 23.73133 | -151.13472 | 38150 ft | 478 kts | 243° |
| 2026-04-25 19:32 | 23.70033 | -151.19886 | 38147 ft | 478 kts | 243° |
| 2026-04-25 19:32 | 23.67450 | -151.25225 | 38146 ft | 478 kts | 243° |
| 2026-04-25 19:33 | 23.63819 | -151.32721 | 38147 ft | 478 kts | 243° |
| 2026-04-25 19:33 | 23.60710 | -151.39128 | 38144 ft | 478 kts | 243° |
| 2026-04-25 19:34 | 23.57602 | -151.45527 | 38145 ft | 478 kts | 243° |
| 2026-04-25 19:34 | 23.54489 | -151.51926 | 38145 ft | 478 kts | 243° |
| 2026-04-25 19:35 | 23.51374 | -151.58322 | 38144 ft | 478 kts | 243° |
| 2026-04-25 19:35 | 23.48257 | -151.64713 | 38141 ft | 478 kts | 243° |
| 2026-04-25 19:36 | 23.45135 | -151.71106 | 38139 ft | 478 kts | 243° |
| 2026-04-25 19:36 | 23.42011 | -151.77493 | 38134 ft | 478 kts | 243° |
| 2026-04-25 19:37 | 23.38885 | -151.83879 | 38137 ft | 478 kts | 243° |
| 2026-04-25 19:37 | 23.35756 | -151.90260 | 38148 ft | 478 kts | 243° |
| 2026-04-25 19:38 | 23.32625 | -151.96638 | 38141 ft | 478 kts | 243° |
| 2026-04-25 19:38 | 23.29492 | -152.03014 | 38147 ft | 478 kts | 243° |
| 2026-04-25 19:39 | 23.26353 | -152.09391 | 38144 ft | 478 kts | 243° |
| 2026-04-25 19:39 | 23.23215 | -152.15758 | 38135 ft | 478 kts | 243° |
| 2026-04-25 19:40 | 23.20072 | -152.22129 | 38146 ft | 478 kts | 243° |
| 2026-04-25 19:40 | 23.16933 | -152.28483 | 38141 ft | 477 kts | 243° |
| 2026-04-25 19:41 | 23.13788 | -152.34840 | 38136 ft | 477 kts | 243° |
| 2026-04-25 19:41 | 23.11173 | -152.40120 | 38139 ft | 477 kts | 243° |
| 2026-04-25 19:42 | 23.07497 | -152.47533 | 38136 ft | 477 kts | 243° |
| 2026-04-25 19:42 | 23.04350 | -152.53874 | 38136 ft | 477 kts | 243° |
| 2026-04-25 19:43 | 23.01196 | -152.60211 | 38135 ft | 477 kts | 243° |
| 2026-04-25 19:43 | 22.98025 | -152.66532 | 38134 ft | 477 kts | 243° |
| 2026-04-25 19:44 | 22.94843 | -152.72859 | 38134 ft | 477 kts | 243° |
| 2026-04-25 19:44 | 22.91688 | -152.79132 | 38130 ft | 477 kts | 243° |
| 2026-04-25 19:45 | 22.88509 | -152.85449 | 38135 ft | 477 kts | 243° |
| 2026-04-25 19:45 | 22.85329 | -152.91760 | 38140 ft | 477 kts | 242° |
| 2026-04-25 19:46 | 22.82146 | -152.98070 | 38141 ft | 477 kts | 242° |
| 2026-04-25 19:46 | 22.78962 | -153.04374 | 38130 ft | 477 kts | 242° |
| 2026-04-25 19:47 | 22.75752 | -153.10722 | 38135 ft | 477 kts | 242° |
| 2026-04-25 19:47 | 22.72581 | -153.16983 | 38131 ft | 477 kts | 242° |
| 2026-04-25 19:48 | 22.69391 | -153.23276 | 38128 ft | 477 kts | 242° |
| 2026-04-25 19:48 | 22.66195 | -153.29570 | 38132 ft | 477 kts | 242° |
| 2026-04-25 19:49 | 22.64059 | -153.33776 | 38132 ft | 477 kts | 242° |
| 2026-04-25 19:49 | 22.59799 | -153.42148 | 38131 ft | 477 kts | 242° |
| 2026-04-25 19:50 | 22.54996 | -153.51572 | 38132 ft | 476 kts | 242° |
| 2026-04-25 19:51 | 22.51794 | -153.57845 | 38130 ft | 476 kts | 242° |
| 2026-04-25 19:51 | 22.48590 | -153.64116 | 38127 ft | 476 kts | 242° |
| 2026-04-25 19:52 | 22.45387 | -153.70377 | 38126 ft | 476 kts | 242° |
| 2026-04-25 19:52 | 22.42182 | -153.76634 | 38127 ft | 476 kts | 242° |
| 2026-04-25 19:53 | 22.38977 | -153.82885 | 38129 ft | 475 kts | 242° |
| 2026-04-25 19:53 | 22.36400 | -153.89384 | 38128 ft | 471 kts | 261° |
| 2026-04-25 19:53 | 22.36215 | -153.92891 | 38126 ft | 467 kts | 272° |
| 2026-04-25 19:54 | 22.36351 | -153.96406 | 38129 ft | 469 kts | 272° |
| 2026-04-25 19:54 | 22.36598 | -154.03464 | 38129 ft | 472 kts | 272° |
| 2026-04-25 19:55 | 22.36784 | -154.10578 | 38129 ft | 475 kts | 271° |
| 2026-04-25 19:55 | 22.36936 | -154.17723 | 38125 ft | 477 kts | 271° |
| 2026-04-25 19:56 | 22.37077 | -154.24892 | 38126 ft | 477 kts | 271° |
| 2026-04-25 19:56 | 22.37216 | -154.32049 | 38128 ft | 477 kts | 271° |
| 2026-04-25 19:57 | 22.37353 | -154.39213 | 38125 ft | 476 kts | 271° |
| 2026-04-25 19:57 | 22.37488 | -154.46339 | 38125 ft | 476 kts | 271° |
| 2026-04-25 19:58 | 22.37620 | -154.53501 | 38123 ft | 475 kts | 271° |
| 2026-04-25 19:58 | 22.37748 | -154.60636 | 38125 ft | 476 kts | 271° |
| 2026-04-25 19:59 | 22.37874 | -154.67791 | 38124 ft | 476 kts | 271° |
| 2026-04-25 19:59 | 22.37996 | -154.74943 | 38126 ft | 476 kts | 271° |
| 2026-04-25 20:00 | 22.38116 | -154.82097 | 38131 ft | 477 kts | 271° |
| 2026-04-25 20:00 | 22.38232 | -154.89254 | 38129 ft | 477 kts | 271° |
| 2026-04-25 20:01 | 22.38400 | -155.00018 | 38128 ft | 478 kts | 271° |
| 2026-04-25 20:01 | 22.38509 | -155.07200 | 38133 ft | 478 kts | 271° |
| 2026-04-25 20:02 | 22.38615 | -155.14392 | 38125 ft | 479 kts | 271° |
| 2026-04-25 20:02 | 22.38717 | -155.21547 | 38126 ft | 480 kts | 271° |
| 2026-04-25 20:03 | 22.38816 | -155.28749 | 38123 ft | 480 kts | 271° |
| 2026-04-25 20:03 | 22.38912 | -155.35963 | 38126 ft | 480 kts | 271° |
| 2026-04-25 20:04 | 22.39005 | -155.43171 | 38125 ft | 480 kts | 271° |
| 2026-04-25 20:04 | 22.39096 | -155.50396 | 38130 ft | 480 kts | 271° |
| 2026-04-25 20:05 | 22.39182 | -155.57613 | 38128 ft | 480 kts | 271° |
| 2026-04-25 20:05 | 22.39266 | -155.64826 | 38128 ft | 480 kts | 271° |
| 2026-04-25 20:06 | 22.39346 | -155.72042 | 38129 ft | 480 kts | 271° |
| 2026-04-25 20:06 | 22.39424 | -155.79260 | 38128 ft | 481 kts | 271° |
| 2026-04-25 20:07 | 22.39498 | -155.86493 | 38125 ft | 482 kts | 271° |
| 2026-04-25 20:07 | 22.39569 | -155.93737 | 38129 ft | 482 kts | 271° |
| 2026-04-25 20:08 | 22.39637 | -156.00991 | 38126 ft | 483 kts | 271° |
| 2026-04-25 20:08 | 22.39702 | -156.08249 | 38125 ft | 483 kts | 271° |
| 2026-04-25 20:09 | 22.39763 | -156.15502 | 38127 ft | 483 kts | 271° |
| 2026-04-25 20:09 | 22.39463 | -156.22709 | 38128 ft | 481 kts | 257° |
| 2026-04-25 20:10 | 22.38331 | -156.26067 | 38137 ft | 484 kts | 243° |
| 2026-04-25 20:10 | 22.36411 | -156.29048 | 38136 ft | 486 kts | 230° |
| 2026-04-25 20:10 | 22.31922 | -156.34527 | 38130 ft | 485 kts | 231° |
| 2026-04-25 20:11 | 22.27626 | -156.40073 | 38076 ft | 480 kts | 232° |
| 2026-04-25 20:11 | 22.25493 | -156.42865 | 37419 ft | 484 kts | 232° |
| 2026-04-25 20:11 | 22.23361 | -156.45657 | 36759 ft | 481 kts | 232° |
| 2026-04-25 20:12 | 22.21228 | -156.48445 | 36032 ft | 481 kts | 232° |
| 2026-04-25 20:12 | 22.19092 | -156.51229 | 35247 ft | 483 kts | 231° |
| 2026-04-25 20:12 | 22.16943 | -156.54024 | 34405 ft | 486 kts | 231° |
| 2026-04-25 20:12 | 22.16216 | -156.54969 | 34101 ft | 488 kts | 231° |
| 2026-04-25 20:13 | 22.12586 | -156.59678 | 32462 ft | 494 kts | 231° |
| 2026-04-25 20:13 | 22.10378 | -156.62541 | 31479 ft | 498 kts | 231° |
| 2026-04-25 20:13 | 22.08160 | -156.65415 | 30575 ft | 500 kts | 231° |
| 2026-04-25 20:13 | 22.05943 | -156.68286 | 29800 ft | 497 kts | 231° |
| 2026-04-25 20:14 | 22.03733 | -156.71145 | 28961 ft | 495 kts | 231° |
| 2026-04-25 20:14 | 22.02243 | -156.73072 | 28431 ft | 494 kts | 231° |
| 2026-04-25 20:14 | 22.00087 | -156.75863 | 27672 ft | 491 kts | 231° |
| 2026-04-25 20:14 | 21.97905 | -156.78683 | 26937 ft | 488 kts | 231° |
| 2026-04-25 20:15 | 21.95735 | -156.81487 | 26202 ft | 486 kts | 230° |
| 2026-04-25 20:15 | 21.93578 | -156.84274 | 25476 ft | 483 kts | 230° |
| 2026-04-25 20:15 | 21.91432 | -156.87044 | 24742 ft | 481 kts | 230° |
| 2026-04-25 20:15 | 21.89289 | -156.89809 | 24004 ft | 480 kts | 230° |
| 2026-04-25 20:16 | 21.87153 | -156.92564 | 23197 ft | 478 kts | 230° |
| 2026-04-25 20:16 | 21.85031 | -156.95299 | 22484 ft | 474 kts | 230° |
| 2026-04-25 20:16 | 21.82931 | -156.98003 | 21807 ft | 466 kts | 230° |
| 2026-04-25 20:16 | 21.80899 | -157.00620 | 21017 ft | 445 kts | 230° |
| 2026-04-25 20:17 | 21.78930 | -157.03156 | 20349 ft | 441 kts | 231° |
| 2026-04-25 20:17 | 21.76961 | -157.05693 | 19663 ft | 442 kts | 231° |
| 2026-04-25 20:17 | 21.74991 | -157.08230 | 18993 ft | 442 kts | 231° |
| 2026-04-25 20:17 | 21.73025 | -157.10763 | 18318 ft | 442 kts | 231° |
| 2026-04-25 20:18 | 21.71064 | -157.13285 | 17555 ft | 429 kts | 231° |
| 2026-04-25 20:18 | 21.69196 | -157.15687 | 16920 ft | 408 kts | 231° |
| 2026-04-25 20:18 | 21.67419 | -157.17972 | 16321 ft | 390 kts | 231° |
| 2026-04-25 20:18 | 21.65710 | -157.20168 | 15746 ft | 377 kts | 231° |
| 2026-04-25 20:19 | 21.64051 | -157.22300 | 15219 ft | 368 kts | 231° |
| 2026-04-25 20:19 | 21.62372 | -157.24459 | 14705 ft | 386 kts | 230° |
| 2026-04-25 20:19 | 21.60606 | -157.26728 | 14117 ft | 404 kts | 230° |
| 2026-04-25 20:19 | 21.58791 | -157.29058 | 13465 ft | 408 kts | 230° |
| 2026-04-25 20:20 | 21.56976 | -157.31385 | 12887 ft | 405 kts | 230° |
| 2026-04-25 20:20 | 21.55206 | -157.33649 | 12265 ft | 381 kts | 230° |
| 2026-04-25 20:20 | 21.53552 | -157.35754 | 11635 ft | 359 kts | 230° |
| 2026-04-25 20:20 | 21.51964 | -157.37762 | 11097 ft | 348 kts | 230° |
| 2026-04-25 20:21 | 21.50404 | -157.39720 | 10887 ft | 342 kts | 230° |
| 2026-04-25 20:21 | 21.48865 | -157.41641 | 10690 ft | 335 kts | 230° |
| 2026-04-25 20:21 | 21.47366 | -157.43501 | 10549 ft | 325 kts | 230° |
| 2026-04-25 20:21 | 21.45908 | -157.45302 | 10407 ft | 313 kts | 230° |
| 2026-04-25 20:22 | 21.44524 | -157.46999 | 10266 ft | 291 kts | 230° |
| 2026-04-25 20:22 | 21.43660 | -157.48052 | 10179 ft | 278 kts | 230° |
| 2026-04-25 20:22 | 21.42000 | -157.50058 | 10045 ft | 266 kts | 230° |
| 2026-04-25 20:22 | 21.40723 | -157.51599 | 9882 ft | 294 kts | 230° |
| 2026-04-25 20:23 | 21.39315 | -157.53310 | 9454 ft | 311 kts | 230° |
| 2026-04-25 20:23 | 21.37918 | -157.55017 | 9106 ft | 296 kts | 230° |
| 2026-04-25 20:23 | 21.36596 | -157.56643 | 8757 ft | 288 kts | 230° |
| 2026-04-25 20:23 | 21.35282 | -157.58273 | 8396 ft | 289 kts | 230° |
| 2026-04-25 20:24 | 21.33972 | -157.59912 | 8070 ft | 289 kts | 230° |
| 2026-04-25 20:24 | 21.32672 | -157.61558 | 7734 ft | 289 kts | 230° |
| 2026-04-25 20:24 | 21.31381 | -157.63209 | 7404 ft | 289 kts | 230° |
| 2026-04-25 20:24 | 21.30110 | -157.64847 | 7065 ft | 290 kts | 230° |
| 2026-04-25 20:25 | 21.28826 | -157.66526 | 6725 ft | 291 kts | 230° |
| 2026-04-25 20:25 | 21.27553 | -157.68218 | 6363 ft | 292 kts | 230° |
| 2026-04-25 20:25 | 21.26288 | -157.69914 | 6090 ft | 290 kts | 230° |
| 2026-04-25 20:25 | 21.25054 | -157.71573 | 6020 ft | 279 kts | 230° |
| 2026-04-25 20:26 | 21.23872 | -157.73167 | 6008 ft | 266 kts | 231° |
| 2026-04-25 20:26 | 21.22713 | -157.74724 | 5776 ft | 266 kts | 230° |
| 2026-04-25 20:26 | 21.21580 | -157.76244 | 5641 ft | 255 kts | 230° |
| 2026-04-25 20:26 | 21.20478 | -157.77724 | 5128 ft | 256 kts | 230° |
| 2026-04-25 20:27 | 21.19357 | -157.79231 | 4533 ft | 263 kts | 230° |
| 2026-04-25 20:27 | 21.18209 | -157.80773 | 4306 ft | 266 kts | 230° |
| 2026-04-25 20:27 | 21.17047 | -157.82329 | 4141 ft | 269 kts | 230° |
| 2026-04-25 20:27 | 21.15892 | -157.83872 | 4011 ft | 262 kts | 230° |
| 2026-04-25 20:28 | 21.14764 | -157.85382 | 4009 ft | 258 kts | 230° |
| 2026-04-25 20:28 | 21.13635 | -157.86894 | 4018 ft | 262 kts | 230° |
| 2026-04-25 20:28 | 21.12468 | -157.88458 | 4018 ft | 271 kts | 230° |
| 2026-04-25 20:28 | 21.11309 | -157.90021 | 4001 ft | 262 kts | 230° |
| 2026-04-25 20:29 | 21.10187 | -157.91533 | 4006 ft | 258 kts | 230° |
| 2026-04-25 20:29 | 21.09073 | -157.93033 | 4006 ft | 258 kts | 230° |
| 2026-04-25 20:29 | 21.07955 | -157.94528 | 4027 ft | 255 kts | 230° |
| 2026-04-25 20:29 | 21.06877 | -157.95966 | 4022 ft | 240 kts | 230° |
| 2026-04-25 20:30 | 21.05868 | -157.97319 | 3992 ft | 223 kts | 233° |
| 2026-04-25 20:30 | 21.05371 | -157.98776 | 3990 ft | 205 kts | 277° |
| 2026-04-25 20:30 | 21.05727 | -158.00230 | 4033 ft | 202 kts | 291° |
| 2026-04-25 20:30 | 21.06152 | -158.01767 | 4067 ft | 240 kts | 289° |
| 2026-04-25 20:31 | 21.06652 | -158.03575 | 4014 ft | 258 kts | 289° |
| 2026-04-25 20:31 | 21.07258 | -158.05410 | 4011 ft | 267 kts | 303° |
| 2026-04-25 20:31 | 21.08498 | -158.06873 | 4024 ft | 265 kts | 330° |
| 2026-04-25 20:31 | 21.10138 | -158.07629 | 4015 ft | 249 kts | 347° |
| 2026-04-25 20:32 | 21.11810 | -158.08135 | 3897 ft | 257 kts | 349° |
| 2026-04-25 20:32 | 21.13574 | -158.08622 | 3587 ft | 264 kts | 349° |
| 2026-04-25 20:32 | 21.15339 | -158.09102 | 3405 ft | 257 kts | 349° |
| 2026-04-25 20:32 | 21.17041 | -158.09553 | 3314 ft | 243 kts | 353° |
| 2026-04-25 20:33 | 21.18623 | -158.09453 | 3244 ft | 219 kts | 25° |
| 2026-04-25 20:33 | 21.19793 | -158.08568 | 3245 ft | 195 kts | 45° |
| 2026-04-25 20:33 | 21.20716 | -158.07576 | 3125 ft | 182 kts | 47° |
| 2026-04-25 20:33 | 21.21275 | -158.06941 | 3081 ft | 172 kts | 50° |
| 2026-04-25 20:34 | 21.22299 | -158.05613 | 2918 ft | 175 kts | 53° |
| 2026-04-25 20:34 | 21.23017 | -158.04611 | 2696 ft | 162 kts | 53° |
| 2026-04-25 20:34 | 21.23660 | -158.03701 | 2501 ft | 144 kts | 53° |
| 2026-04-25 20:34 | 21.24216 | -158.02913 | 2326 ft | 121 kts | 53° |
| 2026-04-25 20:35 | 21.24716 | -158.02200 | 2198 ft | 124 kts | 51° |
| 2026-04-25 20:35 | 21.25241 | -158.01454 | 2008 ft | 125 kts | 52° |
| 2026-04-25 20:35 | 21.25756 | -158.00722 | 1850 ft | 123 kts | 52° |
| 2026-04-25 20:35 | 21.26276 | -157.99983 | 1698 ft | 126 kts | 52° |
| 2026-04-25 20:36 | 21.26808 | -157.99226 | 1516 ft | 131 kts | 53° |
| 2026-04-25 20:36 | 21.27358 | -157.98443 | 1353 ft | 126 kts | 53° |
| 2026-04-25 20:36 | 21.27872 | -157.97713 | 1172 ft | 122 kts | 52° |
| 2026-04-25 20:36 | 21.28385 | -157.96985 | 1022 ft | 122 kts | 53° |
| 2026-04-25 20:37 | 21.28891 | -157.96264 | 845 ft | 118 kts | 51° |
| 2026-04-25 20:37 | 21.29378 | -157.95573 | 730 ft | 122 kts | 52° |
| 2026-04-25 20:37 | 21.29918 | -157.94806 | 519 ft | 127 kts | 52° |
| 2026-04-25 20:37 | 21.30416 | -157.94096 | 374 ft | 117 kts | 53° |
| 2026-04-25 20:38 | 21.30910 | -157.93394 | 228 ft | 120 kts | 52° |
| 2026-04-25 20:38 | 21.31435 | -157.92647 | 53 ft | 126 kts | 53° |
| 2026-04-25 20:38 | 21.31927 | -157.91948 | 26 ft | 108 kts | 53° |
| 2026-04-25 20:38 | 21.32210 | -157.91545 | 20 ft | 39 kts | 53° |
| 2026-04-25 20:39 | 21.32352 | -157.91391 | 16 ft | 22 kts | 21° |
| 2026-04-25 20:39 | 21.32386 | -157.91378 | 16 ft | 1 kts | 20° |
| 2026-04-25 20:39 | 21.32427 | -157.91361 | 17 ft | 10 kts | 20° |
| 2026-04-25 20:39 | 21.32470 | -157.91345 | 18 ft | 10 kts | 20° |
| 2026-04-25 20:40 | 21.32554 | -157.91313 | 19 ft | 10 kts | 19° |
| 2026-04-25 20:40 | 21.32619 | -157.91304 | 20 ft | 10 kts | 347° |
| 2026-04-25 20:40 | 21.32686 | -157.91312 | 22 ft | 10 kts | 360° |
| 2026-04-25 20:40 | 21.32753 | -157.91310 | 23 ft | 10 kts | 343° |
| 2026-04-25 20:41 | 21.32773 | -157.91375 | 22 ft | 10 kts | 274° |
| 2026-04-25 20:41 | 21.32773 | -157.91449 | 21 ft | 10 kts | 269° |
| 2026-04-25 20:41 | 21.32772 | -157.91522 | 22 ft | 10 kts | 270° |
| 2026-04-25 20:41 | 21.32772 | -157.91595 | 23 ft | 10 kts | 270° |
| 2026-04-25 20:42 | 21.32772 | -157.91668 | 23 ft | 10 kts | 270° |
| 2026-04-25 20:42 | 21.32773 | -157.91742 | 23 ft | 10 kts | 270° |
| 2026-04-25 20:42 | 21.32773 | -157.91821 | 22 ft | 16 kts | 270° |
| 2026-04-25 20:42 | 21.32774 | -157.91972 | 21 ft | 21 kts | 270° |
| 2026-04-25 20:43 | 21.32774 | -157.92126 | 23 ft | 20 kts | 270° |
| 2026-04-25 20:43 | 21.32798 | -157.92233 | 25 ft | 13 kts | 327° |
| 2026-04-25 20:43 | 21.32862 | -157.92237 | 25 ft | 9 kts | 6° |
| 2026-04-25 20:43 | 21.32899 | -157.92231 | 23 ft | 1 kts | 10° |
| 2026-04-25 20:44 | 21.32908 | -157.92229 | 22 ft | 1 kts | 10° |
| 2026-04-25 20:44 | 21.32920 | -157.92227 | 25 ft | 2 kts | 10° |
| 2026-04-25 20:44 | 21.32932 | -157.92226 | 22 ft | 2 kts | 3° |
| 2026-04-25 20:44 | 21.32942 | -157.92235 | 25 ft | 2 kts | 303° |
| 2026-04-25 20:45 | 21.32940 | -157.92249 | 26 ft | 2 kts | 266° |
| 2026-04-25 20:45 | 21.32939 | -157.92264 | 23 ft | 2 kts | 265° |
| 2026-04-25 20:45 | 21.32940 | -157.92280 | 25 ft | 4 kts | 275° |
| 2026-04-25 20:45 | 21.32943 | -157.92302 | 25 ft | 0 kts | 277° |